Time;durP1;ratioP1;P1;durP2;ratioP2;P2;SDS_P1;SDS_P2;PMS_P1;PMS_P2;Temp;Humidity;BMP_temperature;BMP_pressure;BME280_temperature;BME280_humidity;BME280_pressure;Samples;Min_cycle;Max_cycle;Signal;HPM_P1;HPM_P2
2023/07/11 00:01:55;;;;;;;4.55;1.55;;;;;;;;;;4902228;29;20122;-63
2023/07/11 00:04:21;;;;;;;4.95;1.35;;;;;;;;;;4901078;29;20110;-63
2023/07/11 00:06:47;;;;;;;3.10;1.00;;;;;;;;;;4902115;29;20044;-63
2023/07/11 00:09:13;;;;;;;5.25;1.40;;;;;;;;;;4901721;29;20043;-63
2023/07/11 00:11:39;;;;;;;4.30;1.30;;;;;;;;;;4901105;29;20051;-63
2023/07/11 00:14:05;;;;;;;5.00;1.35;;;;;;;;;;4902210;29;20040;-63
2023/07/11 00:16:33;;;;;;;4.28;1.42;;;;;;;;;;4901252;29;20044;-63
2023/07/11 00:19:00;;;;;;;6.55;1.45;;;;;;;;;;4901807;29;20034;-63
2023/07/11 00:21:26;;;;;;;6.43;2.08;;;;;;;;;;4901941;29;20094;-63
2023/07/11 00:23:52;;;;;;;4.22;1.40;;;;;;;;;;4901691;29;20047;-63
2023/07/11 00:26:18;;;;;;;4.38;1.25;;;;;;;;;;4902154;29;20043;-63
2023/07/11 00:28:44;;;;;;;6.10;1.50;;;;;;;;;;4901516;29;20051;-63
2023/07/11 00:31:10;;;;;;;4.13;1.10;;;;;;;;;;4901511;29;20425;-63
2023/07/11 00:33:36;;;;;;;8.60;1.50;;;;;;;;;;4901612;29;20055;-63
2023/07/11 00:36:02;;;;;;;5.00;1.30;;;;;;;;;;4901348;29;20159;-63
2023/07/11 00:38:28;;;;;;;6.80;1.50;;;;;;;;;;4901577;29;20110;-63
2023/07/11 00:40:54;;;;;;;5.15;1.20;;;;;;;;;;4901905;29;20041;-63
2023/07/11 00:43:21;;;;;;;7.55;1.27;;;;;;;;;;4902458;29;20088;-63
2023/07/11 00:45:50;;;;;;;5.57;1.60;;;;;;;;;;4902134;29;20036;-63
2023/07/11 00:48:17;;;;;;;4.30;1.10;;;;;;;;;;4905175;29;20131;-64
2023/07/11 00:50:44;;;;;;;6.60;1.17;;;;;;;;;;4905461;29;20023;-64
2023/07/11 00:53:12;;;;;;;5.43;1.30;;;;;;;;;;4904562;29;20076;-64
2023/07/11 00:55:38;;;;;;;5.80;1.30;;;;;;;;;;4905051;29;21775;-65
2023/07/11 00:58:04;;;;;;;5.28;1.30;;;;;;;;;;4905365;29;20103;-65
2023/07/11 01:00:30;;;;;;;5.40;1.48;;;;;;;;;;4905285;29;20043;-65
2023/07/11 01:02:56;;;;;;;4.63;1.38;;;;;;;;;;4904846;29;20044;-65
2023/07/11 01:05:22;;;;;;;2.60;1.00;;;;;;;;;;4904804;29;20040;-65
2023/07/11 01:07:48;;;;;;;2.67;1.17;;;;;;;;;;4904658;29;20130;-65
2023/07/11 01:10:14;;;;;;;6.22;1.52;;;;;;;;;;4904780;29;20119;-65
2023/07/11 01:12:47;;;;;;;3.80;1.33;;;;;;;;;;4905112;29;20060;-65
2023/07/11 01:15:14;;;;;;;3.60;0.93;;;;;;;;;;4904917;29;20460;-65
2023/07/11 01:17:40;;;;;;;3.78;1.20;;;;;;;;;;4905423;29;20085;-65
2023/07/11 01:20:08;;;;;;;6.07;1.52;;;;;;;;;;4903787;29;20047;-65
2023/07/11 01:22:35;;;;;;;5.07;1.40;;;;;;;;;;4904846;29;20032;-65
2023/07/11 01:25:03;;;;;;;3.63;1.35;;;;;;;;;;4903478;29;20075;-65
2023/07/11 01:27:29;;;;;;;6.47;1.75;;;;;;;;;;4904236;29;20039;-65
2023/07/11 01:29:55;;;;;;;6.45;1.38;;;;;;;;;;4905084;29;20039;-65
2023/07/11 01:32:21;;;;;;;7.00;1.45;;;;;;;;;;4904763;29;20059;-65
2023/07/11 01:34:47;;;;;;;3.83;0.85;;;;;;;;;;4905304;29;20036;-65
2023/07/11 01:37:14;;;;;;;5.00;1.10;;;;;;;;;;4905362;29;20040;-65
2023/07/11 01:39:40;;;;;;;4.60;1.50;;;;;;;;;;4904120;29;20068;-65
2023/07/11 01:42:06;;;;;;;4.93;1.40;;;;;;;;;;4889780;29;20044;-65
2023/07/11 01:44:32;;;;;;;4.07;1.30;;;;;;;;;;4904831;29;20047;-65
2023/07/11 01:47:00;;;;;;;4.75;1.05;;;;;;;;;;4905249;29;20031;-65
2023/07/11 01:49:26;;;;;;;3.78;1.10;;;;;;;;;;4904854;29;20087;-65
2023/07/11 01:52:01;;;;;;;5.82;1.45;;;;;;;;;;4905494;29;20099;-64
2023/07/11 01:54:27;;;;;;;6.22;1.48;;;;;;;;;;4904508;29;20039;-64
2023/07/11 01:56:53;;;;;;;4.63;1.30;;;;;;;;;;4903388;29;20075;-64
2023/07/11 01:59:19;;;;;;;3.85;1.17;;;;;;;;;;4904647;29;20067;-65
2023/07/11 02:01:45;;;;;;;4.32;1.02;;;;;;;;;;4904775;29;20204;-65
2023/07/11 02:04:11;;;;;;;6.57;1.45;;;;;;;;;;4904828;29;20069;-65
2023/07/11 02:06:37;;;;;;;6.22;1.13;;;;;;;;;;4903653;29;20085;-64
2023/07/11 02:09:03;;;;;;;6.07;1.60;;;;;;;;;;4904322;29;20067;-65
2023/07/11 02:11:29;;;;;;;6.70;1.55;;;;;;;;;;4902606;29;20070;-65
2023/07/11 02:13:55;;;;;;;5.28;1.23;;;;;;;;;;4904201;29;20097;-65
2023/07/11 02:16:21;;;;;;;3.95;1.33;;;;;;;;;;4904165;29;20088;-65
2023/07/11 02:18:47;;;;;;;4.72;1.20;;;;;;;;;;4902883;29;20123;-64
2023/07/11 02:21:13;;;;;;;6.60;1.75;;;;;;;;;;4903915;29;20597;-64
2023/07/11 02:23:40;;;;;;;10.50;1.65;;;;;;;;;;4903679;29;20031;-65
2023/07/11 02:26:06;;;;;;;7.22;2.22;;;;;;;;;;4903777;29;21867;-65
2023/07/11 02:28:32;;;;;;;5.88;1.95;;;;;;;;;;4904053;29;20044;-65
2023/07/11 02:30:58;;;;;;;7.97;1.70;;;;;;;;;;4903703;29;20056;-64
2023/07/11 02:33:24;;;;;;;6.75;2.08;;;;;;;;;;4903386;29;20616;-64
2023/07/11 02:35:50;;;;;;;5.72;2.00;;;;;;;;;;4903707;29;20048;-64
2023/07/11 02:38:16;;;;;;;5.82;1.70;;;;;;;;;;4903574;29;20043;-64
2023/07/11 02:40:42;;;;;;;5.95;2.03;;;;;;;;;;4903342;29;20070;-64
2023/07/11 02:43:08;;;;;;;5.60;2.05;;;;;;;;;;4903253;29;20036;-64
2023/07/11 02:45:34;;;;;;;10.68;2.50;;;;;;;;;;4903052;29;20032;-64
2023/07/11 02:48:00;;;;;;;5.70;2.13;;;;;;;;;;4903676;29;20047;-64
2023/07/11 02:50:26;;;;;;;8.05;2.70;;;;;;;;;;4903203;29;21216;-64
2023/07/11 02:52:52;;;;;;;6.57;2.28;;;;;;;;;;4902929;29;20488;-65
2023/07/11 02:55:18;;;;;;;5.38;1.67;;;;;;;;;;4903357;29;20445;-65
2023/07/11 02:57:44;;;;;;;8.35;2.20;;;;;;;;;;4903053;29;20039;-65
2023/07/11 03:00:11;;;;;;;5.13;2.17;;;;;;;;;;4902600;29;20134;-65
2023/07/11 03:02:37;;;;;;;6.95;2.20;;;;;;;;;;4903411;29;21048;-64
2023/07/11 03:05:03;;;;;;;6.25;2.35;;;;;;;;;;4902450;29;20144;-64
2023/07/11 03:07:29;;;;;;;6.60;2.13;;;;;;;;;;4902719;29;20028;-64
2023/07/11 03:09:55;;;;;;;5.05;1.80;;;;;;;;;;4901825;29;20039;-64
2023/07/11 03:12:21;;;;;;;5.13;2.05;;;;;;;;;;4902965;29;20031;-63
2023/07/11 03:14:50;;;;;;;7.72;2.10;;;;;;;;;;4902470;29;20091;-63
2023/07/11 03:17:17;;;;;;;6.50;2.30;;;;;;;;;;4902923;29;20463;-62
2023/07/11 03:19:43;;;;;;;5.78;1.83;;;;;;;;;;4885220;29;20055;-63
2023/07/11 03:22:09;;;;;;;5.53;1.85;;;;;;;;;;4903255;29;20031;-63
2023/07/11 03:24:35;;;;;;;5.32;1.63;;;;;;;;;;4902924;29;20151;-63
2023/07/11 03:27:02;;;;;;;9.20;2.08;;;;;;;;;;4903100;29;20873;-63
2023/07/11 03:29:28;;;;;;;5.70;2.00;;;;;;;;;;4902983;29;20043;-63
2023/07/11 03:31:54;;;;;;;6.32;2.17;;;;;;;;;;4902535;29;20083;-63
2023/07/11 03:34:20;;;;;;;4.13;1.75;;;;;;;;;;4902930;29;20040;-63
2023/07/11 03:36:46;;;;;;;6.47;1.70;;;;;;;;;;4887737;29;20032;-63
2023/07/11 03:39:12;;;;;;;5.93;2.03;;;;;;;;;;4902905;29;20038;-63
2023/07/11 03:41:38;;;;;;;4.72;2.05;;;;;;;;;;4902822;29;20176;-63
2023/07/11 03:44:04;;;;;;;6.65;2.20;;;;;;;;;;4902995;29;21992;-63
2023/07/11 03:46:30;;;;;;;8.57;3.00;;;;;;;;;;4902718;29;20523;-63
2023/07/11 03:49:00;;;;;;;7.70;2.20;;;;;;;;;;4902588;29;20040;-63
2023/07/11 03:51:26;;;;;;;3.67;1.58;;;;;;;;;;4902065;29;20126;-63
2023/07/11 03:53:52;;;;;;;6.93;2.53;;;;;;;;;;4902342;29;20035;-63
2023/07/11 03:56:18;;;;;;;9.02;2.28;;;;;;;;;;4901905;29;20036;-63
2023/07/11 03:58:44;;;;;;;8.00;2.35;;;;;;;;;;4902602;29;20035;-63
2023/07/11 04:01:10;;;;;;;8.75;1.92;;;;;;;;;;4902328;29;20119;-63
2023/07/11 04:03:36;;;;;;;7.05;2.10;;;;;;;;;;4902388;29;20043;-63
2023/07/11 04:06:03;;;;;;;5.57;1.85;;;;;;;;;;4901705;29;20040;-63
2023/07/11 04:08:29;;;;;;;8.07;2.20;;;;;;;;;;4901741;29;20492;-63
2023/07/11 04:10:56;;;;;;;7.00;1.98;;;;;;;;;;4902414;29;20480;-63
2023/07/11 04:13:22;;;;;;;6.80;2.30;;;;;;;;;;4901546;29;20031;-63
2023/07/11 04:15:48;;;;;;;6.13;2.00;;;;;;;;;;4902680;29;20044;-63
2023/07/11 04:18:14;;;;;;;5.72;2.28;;;;;;;;;;4902170;29;20071;-63
2023/07/11 04:20:40;;;;;;;5.25;1.98;;;;;;;;;;4902166;29;20064;-63
2023/07/11 04:23:06;;;;;;;5.88;1.88;;;;;;;;;;4901325;29;20078;-63
2023/07/11 04:25:32;;;;;;;6.30;2.10;;;;;;;;;;4901663;29;20043;-63
2023/07/11 04:27:58;;;;;;;7.70;2.28;;;;;;;;;;4901737;29;20063;-64
2023/07/11 04:30:24;;;;;;;9.35;2.70;;;;;;;;;;4901834;29;20052;-64
2023/07/11 04:32:51;;;;;;;5.63;2.40;;;;;;;;;;4902009;29;20139;-64
2023/07/11 04:35:18;;;;;;;9.82;2.55;;;;;;;;;;4899248;29;20031;-64
2023/07/11 04:37:44;;;;;;;6.43;2.70;;;;;;;;;;4902080;29;20051;-64
2023/07/11 04:40:11;;;;;;;6.93;2.45;;;;;;;;;;4900725;29;20063;-64
2023/07/11 04:42:37;;;;;;;7.78;2.47;;;;;;;;;;4901713;29;20040;-64
2023/07/11 04:45:04;;;;;;;7.78;2.38;;;;;;;;;;4901553;29;20040;-64
2023/07/11 04:47:30;;;;;;;5.43;2.53;;;;;;;;;;4902053;29;20102;-64
2023/07/11 04:49:56;;;;;;;11.13;2.72;;;;;;;;;;4902342;29;20032;-64
2023/07/11 04:52:22;;;;;;;5.75;2.30;;;;;;;;;;4900888;29;20099;-64
2023/07/11 04:54:48;;;;;;;6.85;2.60;;;;;;;;;;4901595;29;20024;-64
2023/07/11 04:57:14;;;;;;;8.65;2.83;;;;;;;;;;4901173;29;20027;-65
2023/07/11 04:59:40;;;;;;;7.32;2.75;;;;;;;;;;4901335;29;20100;-64
2023/07/11 05:02:06;;;;;;;8.23;2.80;;;;;;;;;;4900990;29;20036;-64
2023/07/11 05:04:32;;;;;;;9.63;3.00;;;;;;;;;;4900147;29;20079;-64
2023/07/11 05:07:00;;;;;;;10.18;3.67;;;;;;;;;;4901056;29;20078;-64
2023/07/11 05:09:28;;;;;;;8.07;2.88;;;;;;;;;;4900036;29;20028;-64
2023/07/11 05:11:54;;;;;;;8.25;3.20;;;;;;;;;;4900763;29;20555;-64
2023/07/11 05:14:20;;;;;;;7.93;3.17;;;;;;;;;;4901562;29;20102;-64
2023/07/11 05:16:46;;;;;;;8.88;3.20;;;;;;;;;;4901637;29;20059;-63
2023/07/11 05:19:12;;;;;;;8.85;3.22;;;;;;;;;;4901356;29;20055;-63
2023/07/11 05:21:38;;;;;;;10.32;3.30;;;;;;;;;;4901415;29;20044;-63
2023/07/11 05:24:05;;;;;;;8.70;2.88;;;;;;;;;;4901294;29;20040;-63
2023/07/11 05:26:31;;;;;;;8.10;2.88;;;;;;;;;;4900846;29;20041;-63
2023/07/11 05:28:57;;;;;;;8.77;3.25;;;;;;;;;;4899748;29;20059;-63
2023/07/11 05:31:24;;;;;;;9.70;3.75;;;;;;;;;;4900690;29;20059;-63
2023/07/11 05:33:54;;;;;;;6.95;3.20;;;;;;;;;;4904426;29;20036;-63
2023/07/11 05:36:46;;;;;;;6.10;2.75;;;;;;;;;;4904726;29;20154;-64
2023/07/11 05:39:13;;;;;;;9.57;2.78;;;;;;;;;;4902919;29;20044;-64
2023/07/11 05:41:44;;;;;;;11.45;3.40;;;;;;;;;;4904562;29;20048;-63
2023/07/11 05:44:10;;;;;;;7.63;3.20;;;;;;;;;;4904485;29;20040;-63
2023/07/11 05:46:36;;;;;;;8.70;3.60;;;;;;;;;;4904107;29;20043;-63
2023/07/11 05:49:04;;;;;;;8.23;3.10;;;;;;;;;;4903968;29;20063;-63
2023/07/11 05:51:30;;;;;;;9.13;3.30;;;;;;;;;;4903928;29;20130;-63
2023/07/11 05:53:56;;;;;;;10.27;3.83;;;;;;;;;;4904202;29;20167;-63
2023/07/11 05:56:22;;;;;;;8.57;3.45;;;;;;;;;;4904213;29;20818;-64
2023/07/11 05:58:49;;;;;;;7.85;3.35;;;;;;;;;;4903639;29;20027;-63
2023/07/11 06:01:16;;;;;;;13.68;3.63;;;;;;;;;;4904075;29;20335;-63
2023/07/11 06:03:46;;;;;;;12.07;3.85;;;;;;;;;;4904273;29;20027;-63
2023/07/11 06:06:13;;;;;;;10.25;4.03;;;;;;;;;;4903009;29;21884;-63
2023/07/11 06:08:39;;;;;;;7.95;3.88;;;;;;;;;;4903757;29;20051;-63
2023/07/11 06:11:06;;;;;;;9.18;3.83;;;;;;;;;;4903275;29;20146;-64
2023/07/11 06:13:34;;;;;;;8.77;3.53;;;;;;;;;;4903751;29;20048;-63
2023/07/11 06:16:04;;;;;;;9.65;3.72;;;;;;;;;;4903200;29;20032;-63
2023/07/11 06:18:31;;;;;;;9.50;3.92;;;;;;;;;;4902429;29;20032;-64
2023/07/11 06:20:57;;;;;;;7.93;3.70;;;;;;;;;;4902178;29;20067;-63
2023/07/11 06:23:23;;;;;;;10.93;4.53;;;;;;;;;;4903492;29;20064;-63
2023/07/11 06:25:49;;;;;;;8.85;3.85;;;;;;;;;;4903445;29;20115;-64
2023/07/11 06:28:15;;;;;;;9.05;3.67;;;;;;;;;;4902584;29;20384;-63
2023/07/11 06:30:42;;;;;;;10.20;3.80;;;;;;;;;;4902729;29;20083;-64
2023/07/11 06:33:13;;;;;;;13.40;4.72;;;;;;;;;;4890663;29;20135;-64
2023/07/11 06:35:41;;;;;;;7.57;3.60;;;;;;;;;;4902345;29;20047;-63
2023/07/11 06:38:11;;;;;;;9.23;3.50;;;;;;;;;;4903842;29;20062;-63
2023/07/11 06:40:37;;;;;;;9.43;3.55;;;;;;;;;;4903240;29;20118;-63
2023/07/11 06:43:03;;;;;;;10.63;4.20;;;;;;;;;;4902908;29;20042;-63
2023/07/11 06:45:29;;;;;;;11.85;3.95;;;;;;;;;;4903504;29;20038;-63
2023/07/11 06:47:55;;;;;;;9.23;3.60;;;;;;;;;;4903221;29;20035;-64
2023/07/11 06:50:21;;;;;;;10.63;3.67;;;;;;;;;;4903400;29;20493;-64
2023/07/11 06:52:47;;;;;;;11.13;3.90;;;;;;;;;;4902080;29;20024;-64
2023/07/11 06:55:13;;;;;;;12.40;4.47;;;;;;;;;;4902881;29;21386;-64
2023/07/11 06:57:40;;;;;;;11.38;3.90;;;;;;;;;;4894662;29;20039;-64
2023/07/11 07:00:07;;;;;;;9.27;3.75;;;;;;;;;;4898128;29;20602;-64
2023/07/11 07:02:33;;;;;;;9.45;3.40;;;;;;;;;;4876369;29;20039;-64
2023/07/11 07:04:59;;;;;;;7.68;3.60;;;;;;;;;;4897755;29;20123;-64
2023/07/11 07:07:25;;;;;;;8.95;4.15;;;;;;;;;;4897545;29;20040;-63
2023/07/11 07:09:51;;;;;;;5.65;3.15;;;;;;;;;;4897403;29;20060;-64
2023/07/11 07:12:17;;;;;;;8.98;3.28;;;;;;;;;;4897201;29;20035;-63
2023/07/11 07:14:43;;;;;;;11.38;3.50;;;;;;;;;;4896653;29;20039;-63
2023/07/11 07:17:09;;;;;;;8.02;3.05;;;;;;;;;;4897822;29;20040;-64
2023/07/11 07:19:35;;;;;;;9.85;3.10;;;;;;;;;;4896577;29;20044;-64
2023/07/11 07:22:02;;;;;;;10.82;3.58;;;;;;;;;;4897103;29;20099;-63
2023/07/11 07:24:28;;;;;;;7.03;2.95;;;;;;;;;;4897832;29;20047;-64
2023/07/11 07:26:54;;;;;;;8.65;3.10;;;;;;;;;;4897170;29;20522;-63
2023/07/11 07:29:21;;;;;;;8.07;3.10;;;;;;;;;;4897763;29;20031;-64
2023/07/11 07:31:48;;;;;;;8.48;3.25;;;;;;;;;;4896389;29;22290;-63
2023/07/11 07:34:14;;;;;;;7.57;2.63;;;;;;;;;;4896930;29;20088;-63
2023/07/11 07:36:40;;;;;;;6.15;2.65;;;;;;;;;;4896543;29;20027;-64
2023/07/11 07:39:06;;;;;;;5.57;2.72;;;;;;;;;;4897201;29;20071;-64
2023/07/11 07:41:32;;;;;;;12.30;3.15;;;;;;;;;;4896831;29;20086;-64
2023/07/11 07:43:58;;;;;;;9.77;3.20;;;;;;;;;;4897305;29;21843;-63
2023/07/11 07:46:24;;;;;;;6.80;3.03;;;;;;;;;;4897569;29;20680;-63
2023/07/11 07:48:50;;;;;;;8.82;2.75;;;;;;;;;;4897592;29;20046;-64
2023/07/11 07:51:18;;;;;;;7.82;2.85;;;;;;;;;;4897467;29;20115;-63
2023/07/11 07:53:44;;;;;;;7.47;2.92;;;;;;;;;;4897048;29;20031;-63
2023/07/11 07:56:11;;;;;;;9.10;3.20;;;;;;;;;;4897141;29;20028;-64
2023/07/11 07:58:38;;;;;;;8.95;3.00;;;;;;;;;;4897087;29;20035;-63
2023/07/11 08:01:05;;;;;;;11.35;3.10;;;;;;;;;;4897202;29;20941;-64
2023/07/11 08:03:31;;;;;;;11.85;2.42;;;;;;;;;;4896595;29;20042;-63
2023/07/11 08:05:59;;;;;;;7.00;2.63;;;;;;;;;;4897114;29;20068;-64
2023/07/11 08:08:25;;;;;;;8.07;2.70;;;;;;;;;;4897123;29;20403;-64
2023/07/11 08:10:51;;;;;;;6.78;2.50;;;;;;;;;;4898055;29;20071;-64
2023/07/11 08:13:17;;;;;;;6.22;2.88;;;;;;;;;;4898090;29;20032;-64
2023/07/11 08:15:44;;;;;;;7.22;3.08;;;;;;;;;;4897600;29;20030;-64
2023/07/11 08:18:10;;;;;;;9.07;3.33;;;;;;;;;;4896608;29;20126;-63
2023/07/11 08:20:37;;;;;;;12.68;3.40;;;;;;;;;;4896450;29;20095;-63
2023/07/11 08:23:03;;;;;;;6.95;2.50;;;;;;;;;;4896137;29;20036;-64
2023/07/11 08:25:29;;;;;;;7.72;2.88;;;;;;;;;;4896510;29;20038;-63
2023/07/11 08:27:55;;;;;;;8.23;3.28;;;;;;;;;;4897018;29;20035;-64
2023/07/11 08:30:21;;;;;;;7.43;3.00;;;;;;;;;;4897672;29;22048;-63
2023/07/11 08:32:48;;;;;;;6.47;2.45;;;;;;;;;;4897004;29;21282;-63
2023/07/11 08:35:14;;;;;;;7.90;2.78;;;;;;;;;;4897693;29;21707;-63
2023/07/11 08:37:40;;;;;;;9.10;3.05;;;;;;;;;;4896698;29;20031;-64
2023/07/11 08:40:07;;;;;;;8.23;3.30;;;;;;;;;;4897166;29;20036;-63
2023/07/11 08:42:35;;;;;;;8.18;2.83;;;;;;;;;;4897160;29;20110;-64
2023/07/11 08:45:04;;;;;;;8.38;2.92;;;;;;;;;;4897233;29;20696;-63
2023/07/11 08:47:43;;;;;;;9.38;2.90;;;;;;;;;;4898092;29;20522;-65
2023/07/11 08:50:18;;;;;;;7.80;2.65;;;;;;;;;;4897863;29;21972;-65
2023/07/11 08:52:45;;;;;;;9.00;2.42;;;;;;;;;;4898656;29;20027;-65
2023/07/11 08:55:17;;;;;;;7.40;2.50;;;;;;;;;;4897679;29;20039;-65
2023/07/11 08:57:45;;;;;;;7.95;2.78;;;;;;;;;;4897771;29;20434;-65
2023/07/11 09:00:14;;;;;;;8.35;2.33;;;;;;;;;;4896834;29;20039;-65
2023/07/11 09:02:46;;;;;;;6.88;2.28;;;;;;;;;;4882019;29;20058;-65
2023/07/11 09:05:14;;;;;;;4.63;2.13;;;;;;;;;;4897638;29;20047;-65
2023/07/11 09:07:42;;;;;;;7.13;2.08;;;;;;;;;;4896900;29;20031;-65
2023/07/11 09:10:14;;;;;;;10.15;2.13;;;;;;;;;;4899465;29;20663;-66
2023/07/11 09:12:50;;;;;;;7.03;2.38;;;;;;;;;;4899953;29;20035;-66
2023/07/11 09:15:24;;;;;;;4.60;1.90;;;;;;;;;;4900243;29;20036;-66
2023/07/11 09:18:13;;;;;;;8.57;2.22;;;;;;;;;;4899562;29;20048;-66
2023/07/11 09:20:48;;;;;;;5.63;2.10;;;;;;;;;;4874205;29;20052;-66
2023/07/11 09:23:38;;;;;;;6.68;1.98;;;;;;;;;;4899510;29;20734;-66
2023/07/11 09:26:05;;;;;;;5.10;1.90;;;;;;;;;;4899578;29;20118;-66
2023/07/11 09:28:33;;;;;;;6.80;2.30;;;;;;;;;;4899409;29;20155;-66
2023/07/11 09:31:06;;;;;;;7.00;1.92;;;;;;;;;;4899914;29;20055;-66
2023/07/11 09:33:33;;;;;;;5.15;1.90;;;;;;;;;;4899517;29;20672;-66
2023/07/11 09:36:01;;;;;;;7.28;1.90;;;;;;;;;;4900066;29;20036;-66
2023/07/11 09:38:33;;;;;;;5.78;1.83;;;;;;;;;;4900326;29;20039;-66
2023/07/11 09:41:03;;;;;;;7.43;2.10;;;;;;;;;;4899321;29;20036;-66
2023/07/11 09:43:29;;;;;;;4.65;1.70;;;;;;;;;;4897522;29;20031;-64
2023/07/11 09:45:55;;;;;;;6.18;2.15;;;;;;;;;;4898667;29;20039;-64
2023/07/11 09:48:36;;;;;;;4.68;1.55;;;;;;;;;;4899779;29;20047;-64
2023/07/11 09:51:24;;;;;;;4.88;2.15;;;;;;;;;;4899184;29;20492;-64
2023/07/11 09:53:53;;;;;;;5.20;1.95;;;;;;;;;;4899223;29;20030;-64
2023/07/11 09:56:19;;;;;;;4.40;1.70;;;;;;;;;;4899157;29;20038;-64
2023/07/11 09:58:50;;;;;;;9.23;2.10;;;;;;;;;;4899142;29;20699;-64
2023/07/11 10:01:18;;;;;;;6.13;1.83;;;;;;;;;;4899304;29;20162;-64
2023/07/11 10:03:47;;;;;;;9.00;2.25;;;;;;;;;;4899241;29;21063;-64
2023/07/11 10:06:26;;;;;;;7.60;1.90;;;;;;;;;;4899615;29;20039;-64
2023/07/11 10:08:52;;;;;;;5.82;2.03;;;;;;;;;;4899481;29;20051;-64
2023/07/11 10:11:18;;;;;;;6.68;2.10;;;;;;;;;;4899690;29;20048;-64
2023/07/11 10:13:47;;;;;;;5.03;2.05;;;;;;;;;;4898551;29;20079;-64
2023/07/11 10:16:20;;;;;;;5.30;2.10;;;;;;;;;;4900471;29;20051;-64
2023/07/11 10:18:46;;;;;;;;;;;;;;;;;;4903327;29;20062;-64
2023/07/11 10:21:12;;;;;;;5.35;1.88;;;;;;;;;;4903504;29;20507;-66
2023/07/11 10:23:38;;;;;;;7.45;2.22;;;;;;;;;;4904635;29;20053;-66
2023/07/11 10:26:17;;;;;;;5.78;1.90;;;;;;;;;;4897960;29;20225;-66
2023/07/11 10:28:44;;;;;;;7.13;2.33;;;;;;;;;;4896952;29;20028;-66
2023/07/11 10:31:19;;;;;;;8.48;1.92;;;;;;;;;;4897780;29;20204;-66
2023/07/11 10:33:48;;;;;;;7.95;1.80;;;;;;;;;;4900377;29;20118;-66
2023/07/11 10:36:26;;;;;;;5.90;2.10;;;;;;;;;;4896631;29;20063;-66
2023/07/11 10:38:54;;;;;;;6.13;2.17;;;;;;;;;;4896440;29;20122;-66
2023/07/11 10:41:30;;;;;;;8.07;2.33;;;;;;;;;;4896660;29;20039;-66
2023/07/11 10:43:56;;;;;;;6.57;2.10;;;;;;;;;;4897606;29;20031;-66
2023/07/11 10:46:28;;;;;;;7.03;1.88;;;;;;;;;;4897508;29;20042;-66
2023/07/11 10:48:56;;;;;;;8.18;2.28;;;;;;;;;;4897566;29;21920;-66
2023/07/11 10:51:24;;;;;;;4.80;1.98;;;;;;;;;;4898085;29;20031;-66
2023/07/11 10:54:20;;;;;;;5.97;1.90;;;;;;;;;;4897724;29;20028;-66
2023/07/11 10:56:49;;;;;;;5.40;1.75;;;;;;;;;;4853550;29;20044;-66
2023/07/11 10:59:18;;;;;;;6.35;1.95;;;;;;;;;;4897903;29;20063;-66
2023/07/11 11:01:58;;;;;;;9.05;1.65;;;;;;;;;;4896444;29;20044;-66
2023/07/11 11:04:43;;;;;;;6.80;2.00;;;;;;;;;;4897488;29;20044;-66
2023/07/11 11:07:15;;;;;;;7.07;2.20;;;;;;;;;;4897002;29;20075;-66
2023/07/11 11:09:42;;;;;;;6.32;2.00;;;;;;;;;;4897764;29;20024;-66
2023/07/11 11:12:28;;;;;;;6.40;2.10;;;;;;;;;;4897449;29;20074;-66
2023/07/11 11:14:57;;;;;;;8.20;2.10;;;;;;;;;;4896924;29;20034;-66
2023/07/11 11:17:29;;;;;;;10.75;2.20;;;;;;;;;;4896865;29;20068;-66
2023/07/11 11:19:55;;;;;;;11.68;2.10;;;;;;;;;;4896896;29;20055;-66
2023/07/11 11:22:24;;;;;;;8.60;2.95;;;;;;;;;;4897083;29;20044;-66
2023/07/11 11:24:53;;;;;;;7.75;2.20;;;;;;;;;;4897307;29;20538;-66
2023/07/11 11:27:31;;;;;;;5.72;2.08;;;;;;;;;;4896939;29;20163;-66
2023/07/11 11:30:00;;;;;;;7.32;2.25;;;;;;;;;;4896106;29;20036;-66
2023/07/11 11:32:30;;;;;;;6.47;2.45;;;;;;;;;;4885855;29;20044;-66
2023/07/11 11:35:05;;;;;;;7.13;2.20;;;;;;;;;;4885958;29;20036;-66
2023/07/11 11:37:31;;;;;;;8.23;2.45;;;;;;;;;;4885392;29;20389;-66
2023/07/11 11:40:09;;;;;;;6.47;2.30;;;;;;;;;;4885430;29;20032;-66
2023/07/11 11:42:36;;;;;;;5.93;2.10;;;;;;;;;;4885647;29;20101;-66
2023/07/11 11:45:07;;;;;;;6.07;2.10;;;;;;;;;;4885005;29;20099;-66
2023/07/11 11:47:35;;;;;;;7.80;2.15;;;;;;;;;;4885286;29;20111;-66
2023/07/11 11:50:02;;;;;;;7.70;2.17;;;;;;;;;;4885162;29;20028;-66
2023/07/11 11:52:32;;;;;;;12.77;2.20;;;;;;;;;;4884935;29;20554;-66
2023/07/11 11:54:58;;;;;;;6.05;2.10;;;;;;;;;;4885765;29;20810;-66
2023/07/11 11:57:27;;;;;;;5.60;1.75;;;;;;;;;;4884687;29;20047;-66
2023/07/11 11:59:54;;;;;;;8.85;2.47;;;;;;;;;;4884541;29;20032;-66
2023/07/11 12:02:23;;;;;;;6.53;2.20;;;;;;;;;;4884705;29;20802;-67
2023/07/11 12:04:52;;;;;;;7.85;2.30;;;;;;;;;;4885191;29;20036;-67
2023/07/11 12:07:26;;;;;;;6.85;2.17;;;;;;;;;;4885018;29;20040;-67
2023/07/11 12:09:52;;;;;;;6.13;2.35;;;;;;;;;;4884491;29;20028;-67
2023/07/11 12:12:22;;;;;;;8.43;2.40;;;;;;;;;;4884921;29;20038;-66
2023/07/11 12:14:51;;;;;;;6.00;2.45;;;;;;;;;;4884641;29;20131;-66
2023/07/11 12:17:29;;;;;;;6.97;2.10;;;;;;;;;;4880014;29;21788;-66
2023/07/11 12:20:07;;;;;;;8.05;2.50;;;;;;;;;;4883882;29;20028;-66
2023/07/11 12:22:39;;;;;;;8.45;2.85;;;;;;;;;;4884631;29;20024;-66
2023/07/11 12:25:14;;;;;;;8.35;1.75;;;;;;;;;;4885120;29;20044;-66
2023/07/11 12:27:47;;;;;;;7.30;2.60;;;;;;;;;;4884813;29;21456;-66
2023/07/11 12:30:13;;;;;;;5.75;2.15;;;;;;;;;;4885625;29;20487;-66
2023/07/11 12:32:40;;;;;;;5.93;2.42;;;;;;;;;;4896330;29;20040;-66
2023/07/11 12:35:07;;;;;;;6.57;2.42;;;;;;;;;;4896341;29;20114;-66
2023/07/11 12:37:53;;;;;;;7.20;2.45;;;;;;;;;;4895408;29;20074;-66
2023/07/11 12:40:28;;;;;;;7.40;2.70;;;;;;;;;;4882800;29;20051;-66
2023/07/11 12:42:55;;;;;;;7.55;2.90;;;;;;;;;;4899631;29;20107;-64
2023/07/11 12:45:34;;;;;;;6.57;2.50;;;;;;;;;;4899537;29;20122;-64
2023/07/11 12:48:07;;;;;;;7.93;3.22;;;;;;;;;;4899566;29;20035;-64
2023/07/11 12:50:40;;;;;;;10.05;2.50;;;;;;;;;;4899678;29;20032;-64
2023/07/11 12:53:06;;;;;;;9.70;2.72;;;;;;;;;;4899662;29;20471;-62
2023/07/11 12:55:32;;;;;;;12.48;2.72;;;;;;;;;;4899172;29;20139;-62
2023/07/11 12:57:58;;;;;;;7.80;2.35;;;;;;;;;;4899985;29;20503;-62
2023/07/11 13:00:27;;;;;;;9.45;2.58;;;;;;;;;;4900415;29;20043;-64
2023/07/11 13:03:00;;;;;;;6.20;2.30;;;;;;;;;;4899232;29;20039;-64
2023/07/11 13:05:26;;;;;;;;;;;;;;;;;;4899526;29;20032;-64
2023/07/11 13:07:52;;;;;;;9.50;2.90;;;;;;;;;;4899327;29;20000;-64
2023/07/11 13:10:21;;;;;;;12.93;3.13;;;;;;;;;;4898962;29;20036;-64
2023/07/11 13:12:47;;;;;;;6.47;2.63;;;;;;;;;;4898949;29;20802;-64
2023/07/11 13:15:16;;;;;;;10.75;3.25;;;;;;;;;;4898590;29;20063;-66
2023/07/11 13:17:44;;;;;;;7.13;2.28;;;;;;;;;;4898032;29;20040;-66
2023/07/11 13:20:17;;;;;;;8.68;2.60;;;;;;;;;;4899294;29;20051;-66
2023/07/11 13:22:43;;;;;;;6.75;2.60;;;;;;;;;;4899776;29;21569;-66
2023/07/11 13:25:17;;;;;;;5.72;2.45;;;;;;;;;;4891798;29;20242;-66
2023/07/11 13:27:46;;;;;;;7.28;2.20;;;;;;;;;;4893104;29;20039;-66
2023/07/11 13:30:19;;;;;;;7.50;2.17;;;;;;;;;;4893970;29;21437;-66
2023/07/11 13:32:45;;;;;;;7.70;2.42;;;;;;;;;;4894374;29;20484;-66
2023/07/11 13:35:15;;;;;;;7.00;2.47;;;;;;;;;;4893749;29;20740;-66
2023/07/11 13:37:46;;;;;;;7.20;2.53;;;;;;;;;;4892460;29;20043;-65
2023/07/11 13:40:31;;;;;;;8.05;2.00;;;;;;;;;;4892898;29;20034;-64
2023/07/11 13:42:57;;;;;;;9.38;2.80;;;;;;;;;;4893494;29;20039;-64
2023/07/11 13:45:25;;;;;;;6.82;2.28;;;;;;;;;;4893448;29;20149;-64
2023/07/11 13:47:52;;;;;;;7.90;2.28;;;;;;;;;;4893693;29;20040;-64
2023/07/11 13:50:30;;;;;;;6.43;2.30;;;;;;;;;;4893426;29;20043;-64
2023/07/11 13:52:56;;;;;;;6.13;2.20;;;;;;;;;;4891242;29;20039;-64
2023/07/11 13:55:27;;;;;;;8.68;2.17;;;;;;;;;;4893475;29;20036;-64
2023/07/11 13:57:54;;;;;;;8.48;2.33;;;;;;;;;;4892826;29;20039;-64
2023/07/11 14:00:21;;;;;;;8.95;2.33;;;;;;;;;;4893143;29;20040;-64
2023/07/11 14:02:47;;;;;;;6.03;2.30;;;;;;;;;;4893481;29;20035;-64
2023/07/11 14:05:13;;;;;;;6.68;2.10;;;;;;;;;;4892970;29;20733;-65
2023/07/11 14:07:39;;;;;;;4.82;1.65;;;;;;;;;;4892908;29;20044;-66
2023/07/11 14:10:06;;;;;;;6.82;2.00;;;;;;;;;;4892876;29;20119;-67
2023/07/11 14:12:32;;;;;;;6.40;2.00;;;;;;;;;;4893026;29;20031;-67
2023/07/11 14:14:58;;;;;;;5.72;2.03;;;;;;;;;;4892630;29;20028;-66
2023/07/11 14:17:24;;;;;;;5.85;1.88;;;;;;;;;;4893258;29;20036;-66
2023/07/11 14:19:50;;;;;;;7.18;2.13;;;;;;;;;;4893648;29;20039;-67
2023/07/11 14:22:22;;;;;;;5.18;1.73;;;;;;;;;;4892890;29;20044;-67
2023/07/11 14:24:48;;;;;;;5.13;1.65;;;;;;;;;;4891589;29;20077;-66
2023/07/11 14:27:15;;;;;;;4.32;1.50;;;;;;;;;;4892963;29;21854;-66
2023/07/11 14:29:41;;;;;;;5.72;1.88;;;;;;;;;;4892663;29;20039;-67
2023/07/11 14:32:12;;;;;;;3.90;1.13;;;;;;;;;;4892323;29;20063;-67
2023/07/11 14:34:38;;;;;;;5.20;1.75;;;;;;;;;;4892092;29;20639;-66
2023/07/11 14:37:04;;;;;;;4.35;1.50;;;;;;;;;;4892763;29;20042;-66
2023/07/11 14:39:30;;;;;;;4.30;1.70;;;;;;;;;;4892706;29;20102;-66
2023/07/11 14:41:56;;;;;;;5.28;1.70;;;;;;;;;;4892581;29;20078;-66
2023/07/11 14:44:22;;;;;;;3.50;1.48;;;;;;;;;;4893112;29;20039;-66
2023/07/11 14:46:49;;;;;;;7.35;1.30;;;;;;;;;;4892968;29;20824;-66
2023/07/11 14:49:15;;;;;;;6.40;1.90;;;;;;;;;;4892235;29;20126;-66